Time;durP1;ratioP1;P1;durP2;ratioP2;P2;SDS_P1;SDS_P2;PMS_P1;PMS_P2;Temp;Humidity;BMP_temperature;BMP_pressure;BME280_temperature;BME280_humidity;BME280_pressure;Samples;Min_cycle;Max_cycle;Signal;HPM_P1;HPM_P2
2022/06/03 00:01:46;;;;;;;4.47;3.40;;;24.90;54.20;;;;;;4875098;29;20049;-78
2022/06/03 00:04:30;;;;;;;4.60;3.05;;;24.80;54.70;;;;;;4877413;29;20021;-79
2022/06/03 00:07:21;;;;;;;4.50;3.40;;;24.90;54.60;;;;;;4876918;29;20136;-77
2022/06/03 00:10:18;;;;;;;8.02;3.70;;;24.90;55.00;;;;;;4876145;29;20152;-78
2022/06/03 00:12:49;;;;;;;4.80;3.63;;;25.00;54.70;;;;;;4877243;29;20143;-78
2022/06/03 00:15:18;;;;;;;5.97;3.50;;;25.00;54.90;;;;;;4861835;29;20028;-78
2022/06/03 00:17:55;;;;;;;4.90;3.80;;;24.80;55.20;;;;;;4876802;29;20041;-82
2022/06/03 00:20:40;;;;;;;4.53;3.45;;;24.80;55.30;;;;;;4877587;29;20056;-80
2022/06/03 00:23:20;;;;;;;5.32;3.97;;;24.80;55.10;;;;;;4877735;29;20025;-79
2022/06/03 00:26:04;;;;;;;4.65;3.60;;;24.90;55.00;;;;;;4877400;29;20089;-78
2022/06/03 00:28:55;;;;;;;4.90;3.60;;;25.00;54.70;;;;;;4877265;29;20029;-77
2022/06/03 00:31:30;;;;;;;;;;;24.60;55.20;;;;;;4877625;29;20068;-77
2022/06/03 00:34:24;;;;;;;5.38;3.60;;;24.80;55.10;;;;;;4928793;29;19929;-77
2022/06/03 00:36:58;;;;;;;5.93;3.53;;;25.00;54.50;;;;;;4934119;29;20110;-78
2022/06/03 00:39:58;;;;;;;4.93;3.60;;;24.90;54.80;;;;;;4934260;29;20130;-77
2022/06/03 00:42:45;;;;;;;3.75;2.97;;;25.00;54.80;;;;;;4934296;29;20063;-77
2022/06/03 00:45:32;;;;;;;5.70;3.88;;;25.10;54.50;;;;;;4934543;29;20028;-77
2022/06/03 00:48:03;;;;;;;4.95;4.00;;;25.10;54.50;;;;;;4935540;29;20024;-77
2022/06/03 00:51:03;;;;;;;4.60;3.65;;;25.30;54.40;;;;;;4934157;29;20023;-77
2022/06/03 00:53:47;;;;;;;4.53;3.67;;;25.40;54.20;;;;;;4935613;29;20024;-78
2022/06/03 00:56:24;;;;;;;6.07;4.13;;;25.40;54.40;;;;;;4916628;29;20020;-78
2022/06/03 00:58:53;;;;;;;5.80;4.15;;;25.20;54.60;;;;;;4930871;29;20032;-77
2022/06/03 01:01:31;;;;;;;5.22;4.38;;;25.20;54.50;;;;;;4922934;29;20103;-78
2022/06/03 01:04:04;;;;;;;5.65;3.83;;;25.10;54.80;;;;;;4933890;29;20114;-77
2022/06/03 01:07:03;;;;;;;6.35;4.70;;;25.00;55.00;;;;;;4935602;29;20030;-78
2022/06/03 01:09:52;;;;;;;5.65;4.15;;;25.10;54.70;;;;;;4935300;29;20030;-78
2022/06/03 01:12:40;;;;;;;5.63;4.10;;;24.90;55.10;;;;;;4933399;29;20024;-77
2022/06/03 01:15:39;;;;;;;5.75;4.32;;;24.90;55.10;;;;;;4938395;29;20386;-78
2022/06/03 01:18:37;;;;;;;6.00;4.05;;;24.70;55.40;;;;;;4864032;29;20040;-78
2022/06/03 01:21:14;;;;;;;5.47;4.32;;;24.80;55.20;;;;;;4880666;29;20045;-77
2022/06/03 01:24:07;;;;;;;5.22;4.15;;;24.70;55.10;;;;;;4880573;29;20041;-77
2022/06/03 01:26:48;;;;;;;4.78;3.60;;;24.50;55.60;;;;;;4863957;29;20025;-77
2022/06/03 01:29:31;;;;;;;5.40;4.22;;;24.60;55.60;;;;;;4880501;29;20037;-78
2022/06/03 01:32:24;;;;;;;5.93;4.75;;;24.50;55.70;;;;;;4880271;29;20429;-78
2022/06/03 01:35:08;;;;;;;6.05;4.13;;;24.50;56.50;;;;;;4863436;29;20128;-79
2022/06/03 01:37:49;;;;;;;5.45;4.50;;;24.60;55.90;;;;;;4880305;29;20040;-78
2022/06/03 01:40:30;;;;;;;7.40;4.40;;;24.60;56.00;;;;;;4864452;29;20088;-79
2022/06/03 01:43:01;;;;;;;;;;;24.60;55.90;;;;;;4880010;29;20060;-77
2022/06/03 01:45:38;;;;;;;5.60;4.13;;;24.40;56.10;;;;;;4880322;29;19908;-79
2022/06/03 01:48:06;;;;;;;5.25;4.47;;;24.00;57.10;;;;;;4880112;29;20048;-78
2022/06/03 01:50:53;;;;;;;5.10;4.32;;;23.80;57.70;;;;;;4864572;29;20473;-76
2022/06/03 01:53:33;;;;;;;9.32;4.80;;;24.00;57.50;;;;;;4862836;29;20084;-78
2022/06/03 01:56:33;;;;;;;5.45;4.22;;;24.20;57.30;;;;;;4927356;29;20039;-77
2022/06/03 01:59:07;;;;;;;5.50;4.05;;;24.20;57.10;;;;;;4938425;29;20035;-79
2022/06/03 02:02:20;;;;;;;5.45;4.60;;;24.30;57.00;;;;;;4937213;29;20110;-78
2022/06/03 02:05:07;;;;;;;7.35;4.72;;;24.40;57.20;;;;;;4937166;29;20028;-78
2022/06/03 02:07:54;;;;;;;6.03;3.90;;;24.40;57.10;;;;;;4938681;29;20024;-76
2022/06/03 02:10:29;;;;;;;5.35;4.45;;;24.20;57.50;;;;;;4937378;29;20119;-78
2022/06/03 02:13:24;;;;;;;5.85;4.35;;;24.20;57.60;;;;;;4938106;29;20024;-77
2022/06/03 02:16:18;;;;;;;5.82;4.43;;;24.10;57.80;;;;;;4937312;29;20024;-74
2022/06/03 02:19:19;;;;;;;7.05;4.97;;;24.10;58.00;;;;;;4938268;29;20548;-78
2022/06/03 02:22:23;;;;;;;5.03;4.38;;;24.00;58.20;;;;;;4936469;29;20038;-77
2022/06/03 02:25:28;;;;;;;5.50;4.20;;;24.20;57.70;;;;;;4936232;29;20034;-77
2022/06/03 02:28:20;;;;;;;6.03;4.57;;;23.80;58.60;;;;;;4936820;29;20055;-78
2022/06/03 02:31:18;;;;;;;5.68;4.47;;;24.00;58.20;;;;;;4897927;29;20068;-79
2022/06/03 02:33:49;;;;;;;4.38;3.80;;;24.10;57.90;;;;;;4897841;29;20051;-79
2022/06/03 02:36:33;;;;;;;6.03;3.90;;;23.80;58.70;;;;;;4898128;29;20044;-77
2022/06/03 02:39:17;;;;;;;7.00;4.75;;;23.70;59.20;;;;;;4907494;29;20116;-79
2022/06/03 02:41:58;;;;;;;5.75;4.90;;;23.80;58.60;;;;;;4900800;29;20044;-78
2022/06/03 02:44:35;;;;;;;7.25;5.40;;;24.00;58.10;;;;;;4916733;29;20078;-78
2022/06/03 02:47:51;;;;;;;6.55;4.80;;;24.10;57.80;;;;;;4916543;29;20044;-78
2022/06/03 02:50:47;;;;;;;5.82;4.95;;;24.10;57.70;;;;;;4881424;29;20048;-79
2022/06/03 02:53:45;;;;;;;6.38;5.32;;;24.20;57.60;;;;;;4881954;29;20032;-80
2022/06/03 02:56:22;;;;;;;6.60;5.90;;;24.10;57.70;;;;;;4860295;29;20070;-79
2022/06/03 02:59:08;;;;;;;8.07;5.30;;;23.80;58.20;;;;;;4859770;29;20043;-78
2022/06/03 03:02:03;;;;;;;5.65;5.03;;;24.00;58.30;;;;;;4860220;29;20412;-78
2022/06/03 03:04:52;;;;;;;7.43;5.78;;;23.80;58.80;;;;;;4860338;29;20355;-78
2022/06/03 03:07:24;;;;;;;5.97;5.13;;;23.80;58.30;;;;;;4859884;29;20041;-79
2022/06/03 03:10:26;;;;;;;5.53;4.68;;;23.80;58.20;;;;;;4860358;29;20138;-78
2022/06/03 03:13:27;;;;;;;6.90;5.38;;;23.90;58.30;;;;;;4860052;29;20038;-79
2022/06/03 03:16:08;;;;;;;6.63;5.00;;;23.80;58.80;;;;;;4840784;29;20668;-78
2022/06/03 03:18:59;;;;;;;6.85;5.40;;;23.70;58.70;;;;;;4840546;29;20134;-82
2022/06/03 03:21:49;;;;;;;6.15;4.57;;;23.70;58.90;;;;;;4841559;29;20038;-78
2022/06/03 03:24:20;;;;;;;6.77;5.30;;;23.70;59.00;;;;;;4841252;29;20525;-78
2022/06/03 03:26:54;;;;;;;5.80;5.20;;;23.80;59.00;;;;;;4808278;29;20781;-77
2022/06/03 03:29:50;;;;;;;5.90;5.20;;;23.90;58.70;;;;;;4822508;29;20050;-79
2022/06/03 03:32:35;;;;;;;5.88;4.70;;;24.10;58.40;;;;;;4854007;29;20049;-79
2022/06/03 03:35:27;;;;;;;7.20;5.00;;;24.30;58.30;;;;;;4858895;29;20029;-78
2022/06/03 03:38:04;;;;;;;6.15;5.45;;;24.40;58.30;;;;;;4845401;29;20124;-78
2022/06/03 03:41:01;;;;;;;5.55;4.78;;;24.50;58.40;;;;;;4841138;29;20475;-78
2022/06/03 03:43:51;;;;;;;6.68;4.63;;;24.60;58.00;;;;;;4844913;29;20342;-78
2022/06/03 03:46:47;;;;;;;7.25;4.88;;;24.10;59.60;;;;;;4859498;29;20025;-79
2022/06/03 03:49:38;;;;;;;7.70;4.90;;;24.30;59.60;;;;;;4859481;29;20042;-77
2022/06/03 03:52:15;;;;;;;5.95;5.32;;;24.70;58.80;;;;;;4898198;29;20479;-78
2022/06/03 03:54:50;;;;;;;5.30;4.47;;;24.80;58.60;;;;;;4934741;29;20035;-78
2022/06/03 03:57:34;;;;;;;6.68;4.40;;;25.10;58.30;;;;;;4935104;29;20031;-77
2022/06/03 04:00:34;;;;;;;6.72;4.43;;;24.90;58.40;;;;;;4936066;29;20042;-78
2022/06/03 04:03:28;;;;;;;5.93;4.68;;;24.90;58.80;;;;;;4933807;29;20015;-77
2022/06/03 04:06:09;;;;;;;5.00;4.32;;;25.10;58.30;;;;;;4936192;29;20039;-78
2022/06/03 04:08:56;;;;;;;5.88;4.60;;;25.30;58.50;;;;;;4934943;29;20376;-77
2022/06/03 04:11:54;;;;;;;6.57;5.47;;;25.40;58.70;;;;;;4935975;29;20075;-78
2022/06/03 04:14:57;;;;;;;7.43;5.05;;;25.50;58.70;;;;;;4934218;29;20020;-79
2022/06/03 04:17:28;;;;;;;6.07;5.10;;;25.80;58.60;;;;;;4936041;29;20082;-77
2022/06/03 04:20:33;;;;;;;6.05;5.03;;;25.90;58.60;;;;;;4935862;29;20091;-78
2022/06/03 04:23:44;;;;;;;6.22;5.00;;;26.00;57.90;;;;;;4934806;29;20054;-78
2022/06/03 04:26:16;;;;;;;;;;;25.70;58.70;;;;;;4933998;29;20051;-77
2022/06/03 04:29:34;;;;;;;6.20;4.80;;;25.70;58.70;;;;;;4934640;29;19907;-78
2022/06/03 04:32:31;;;;;;;6.90;4.93;;;25.50;59.30;;;;;;4935673;29;20370;-77
2022/06/03 04:35:48;;;;;;;6.93;4.77;;;25.70;58.70;;;;;;4934810;29;20042;-77
2022/06/03 04:38:31;;;;;;;6.60;5.05;;;25.60;58.20;;;;;;4895839;29;20271;-77
2022/06/03 04:41:24;;;;;;;6.35;5.22;;;25.60;57.40;;;;;;4878923;29;20036;-78
2022/06/03 04:44:11;;;;;;;5.95;5.18;;;25.70;57.10;;;;;;4879581;29;20116;-76
2022/06/03 04:46:45;;;;;;;6.00;4.97;;;26.00;57.00;;;;;;4875513;29;20068;-78
2022/06/03 04:49:49;;;;;;;5.88;4.80;;;25.00;58.30;;;;;;4879674;29;20040;-77
2022/06/03 04:52:50;;;;;;;6.70;5.10;;;25.10;56.10;;;;;;4894830;29;20475;-77
2022/06/03 04:55:34;;;;;;;;;;;25.30;56.30;;;;;;4880237;29;20088;-80
2022/06/03 04:58:34;;;;;;;6.05;4.63;;;25.40;54.60;;;;;;4894653;29;19912;-77
2022/06/03 05:01:38;;;;;;;6.38;4.78;;;24.40;57.00;;;;;;4892394;29;20380;-78
2022/06/03 05:05:00;;;;;;;6.32;4.72;;;24.30;57.70;;;;;;4876234;29;20029;-76
2022/06/03 05:07:45;;;;;;;5.82;4.38;;;25.30;55.90;;;;;;4856685;29;20040;-76
2022/06/03 05:10:38;;;;;;;5.60;4.60;;;25.60;55.60;;;;;;4840336;29;20029;-75
2022/06/03 05:13:29;;;;;;;7.00;5.20;;;25.70;55.30;;;;;;4841898;29;20036;-76
2022/06/03 05:15:59;;;;;;;;;;;26.30;55.50;;;;;;4854748;29;20041;-88
2022/06/03 05:19:03;;;;;;;9.45;5.15;;;26.50;54.20;;;;;;4842409;29;19916;-76
2022/06/03 05:21:47;;;;;;;5.30;4.72;;;26.40;54.30;;;;;;4819148;29;20058;-75
2022/06/03 05:24:13;;;;;;;6.00;4.80;;;26.60;54.90;;;;;;4812613;29;20041;-76
2022/06/03 05:27:16;;;;;;;8.68;5.10;;;27.00;54.00;;;;;;4808209;29;20046;-84
2022/06/03 05:30:06;;;;;;;6.10;4.53;;;27.40;53.00;;;;;;4805552;29;20031;-81
2022/06/03 05:32:58;;;;;;;5.40;4.65;;;27.40;52.90;;;;;;4821232;29;20038;-87
2022/06/03 05:35:43;;;;;;;6.03;4.60;;;27.40;52.60;;;;;;4822045;29;20060;-80
2022/06/03 05:38:35;;;;;;;5.38;4.38;;;27.60;52.60;;;;;;4806187;29;20027;-82
2022/06/03 05:44:41;;;;;;;5.80;4.75;;;27.60;52.30;;;;;;4854827;29;20136;-77
2022/06/03 05:47:15;;;;;;;9.73;4.53;;;27.50;52.60;;;;;;4876790;29;20065;-80
2022/06/03 05:49:47;;;;;;;7.43;4.40;;;27.60;52.80;;;;;;4876935;29;20119;-76
2022/06/03 05:52:47;;;;;;;5.43;4.10;;;27.80;52.40;;;;;;4876949;29;20069;-84
2022/06/03 05:55:30;;;;;;;5.28;4.63;;;27.70;52.50;;;;;;4869901;29;20089;-79
2022/06/03 05:58:14;;;;;;;6.28;4.50;;;27.60;53.10;;;;;;4873424;29;20503;-78
2022/06/03 06:00:48;;;;;;;5.93;4.32;;;27.50;53.30;;;;;;4935331;29;20601;-77
2022/06/03 06:03:30;;;;;;;4.85;4.30;;;27.50;53.60;;;;;;4936979;29;20440;-80
2022/06/03 06:06:37;;;;;;;5.32;4.28;;;27.70;52.50;;;;;;4935734;29;20116;-83
2022/06/03 06:09:12;;;;;;;8.50;4.05;;;28.30;52.80;;;;;;4921249;29;20024;-77
2022/06/03 06:12:04;;;;;;;5.53;4.50;;;28.70;51.30;;;;;;4934918;29;20147;-82
2022/06/03 06:14:53;;;;;;;4.55;3.88;;;28.80;51.60;;;;;;4938135;29;20082;-80
2022/06/03 06:17:37;;;;;;;7.00;4.28;;;28.70;51.30;;;;;;4937372;29;20051;-83
2022/06/03 06:20:27;;;;;;;6.05;4.20;;;28.50;52.00;;;;;;4938938;29;20032;-84
2022/06/03 06:23:03;;;;;;;6.80;4.13;;;28.80;52.80;;;;;;4938855;29;20035;-77
2022/06/03 06:25:39;;;;;;;5.10;4.00;;;28.90;52.70;;;;;;4933044;29;20059;-76
2022/06/03 06:28:25;;;;;;;4.82;4.28;;;29.00;51.90;;;;;;4937852;29;20028;-83
2022/06/03 06:31:16;;;;;;;6.82;3.70;;;29.20;50.90;;;;;;4937720;29;20034;-79
2022/06/03 06:34:15;;;;;;;6.88;4.40;;;29.20;51.00;;;;;;4938039;29;20046;-83
2022/06/03 06:37:12;;;;;;;5.97;4.13;;;29.10;51.10;;;;;;4938051;29;20071;-78
2022/06/03 06:39:58;;;;;;;6.03;3.83;;;29.10;51.10;;;;;;4938197;29;20024;-77
2022/06/03 06:43:09;;;;;;;7.72;4.22;;;29.20;51.00;;;;;;4938380;29;20051;-93
2022/06/03 06:45:48;;;;;;;6.43;3.92;;;29.20;52.60;;;;;;4936337;29;20054;-87
2022/06/03 06:48:41;;;;;;;4.50;3.75;;;29.20;51.20;;;;;;4936668;29;20090;-78
2022/06/03 06:51:21;;;;;;;9.00;4.20;;;29.50;50.90;;;;;;4938194;29;20095;-79
2022/06/03 06:53:51;;;;;;;;;;;29.20;51.60;;;;;;4936737;29;20572;-76
2022/06/03 06:56:35;;;;;;;5.65;4.00;;;29.20;52.20;;;;;;4938053;29;19910;-83
2022/06/03 06:59:10;;;;;;;5.07;3.60;;;29.50;50.90;;;;;;4920675;29;20494;-78
2022/06/03 07:01:57;;;;;;;5.50;3.88;;;29.90;50.10;;;;;;4937516;29;20134;-80
2022/06/03 07:04:31;;;;;;;7.32;3.90;;;29.60;51.00;;;;;;4937790;29;20020;-81
2022/06/03 07:07:23;;;;;;;5.68;4.00;;;29.80;50.10;;;;;;4932166;29;20027;-80
2022/06/03 07:10:02;;;;;;;4.80;3.78;;;30.00;51.00;;;;;;4937482;29;20075;-79
2022/06/03 07:12:37;;;;;;;8.68;3.90;;;29.50;49.90;;;;;;4920800;29;20027;-75
2022/06/03 07:15:14;;;;;;;5.72;3.97;;;28.50;51.30;;;;;;4935209;29;20371;-77
2022/06/03 07:20:36;;;;;;;5.50;4.10;;;29.40;51.70;;;;;;4936075;29;20093;-77
2022/06/03 07:23:11;;;;;;;4.95;3.95;;;30.00;50.90;;;;;;4936074;29;20386;-87
2022/06/03 07:25:46;;;;;;;4.22;3.60;;;30.00;52.20;;;;;;4937202;29;20016;-82
2022/06/03 07:28:51;;;;;;;6.97;3.60;;;30.20;51.20;;;;;;4937167;29;20067;-85
2022/06/03 07:31:20;;;;;;;5.00;3.90;;;30.10;50.10;;;;;;4936876;29;20031;-80
2022/06/03 07:33:57;;;;;;;6.28;3.90;;;30.00;50.70;;;;;;4936038;29;20363;-77
2022/06/03 07:36:29;;;;;;;6.30;3.80;;;29.80;51.50;;;;;;4935975;29;20032;-88
2022/06/03 07:39:00;;;;;;;7.40;4.20;;;29.90;51.20;;;;;;4936734;29;20027;-75
2022/06/03 07:41:53;;;;;;;5.80;4.20;;;30.20;50.40;;;;;;4936606;29;20100;-80
2022/06/03 07:44:34;;;;;;;5.57;3.80;;;30.50;49.70;;;;;;4951893;29;20028;-85
2022/06/03 07:47:03;;;;;;;9.93;4.00;;;30.60;50.50;;;;;;4936496;29;20102;-79
2022/06/03 07:49:34;;;;;;;6.70;4.18;;;30.50;50.40;;;;;;4936183;29;20091;-79
2022/06/03 07:52:02;;;;;;;;;;;30.00;49.80;;;;;;4935954;29;20028;-81
2022/06/03 07:54:34;;;;;;;5.75;3.95;;;29.70;50.80;;;;;;4935499;29;19903;-88
2022/06/03 07:57:09;;;;;;;6.90;3.83;;;29.60;51.60;;;;;;4936174;29;20467;-79
2022/06/03 07:59:37;;;;;;;5.90;3.90;;;29.60;51.10;;;;;;4936887;29;20062;-82
2022/06/03 08:02:17;;;;;;;5.63;3.50;;;30.10;50.70;;;;;;4936187;29;20027;-79
2022/06/03 08:04:45;;;;;;;4.68;3.50;;;30.00;49.40;;;;;;4936578;29;20016;-77
2022/06/03 08:13:03;;;;;;;6.47;3.80;;;29.60;49.20;;;;;;4936738;29;20037;-83
2022/06/03 08:15:35;;;;;;;6.97;3.72;;;29.80;50.30;;;;;;4936638;29;20023;-76
2022/06/03 08:18:05;;;;;;;9.25;3.75;;;29.60;50.70;;;;;;4935891;29;20035;-77
2022/06/03 08:20:37;;;;;;;5.53;3.60;;;30.30;51.60;;;;;;4935979;29;20083;-76
2022/06/03 08:23:04;;;;;;;5.93;3.92;;;30.20;51.00;;;;;;4935779;29;20085;-78
2022/06/03 08:25:37;;;;;;;7.18;4.20;;;30.30;51.30;;;;;;4934922;29;20019;-82
2022/06/03 08:28:03;;;;;;;4.57;3.70;;;30.80;50.70;;;;;;4936032;29;20016;-78
2022/06/03 08:30:29;;;;;;;5.72;4.13;;;30.60;50.00;;;;;;4936527;29;20012;-79
2022/06/03 08:33:08;;;;;;;5.68;3.90;;;29.60;50.30;;;;;;4935763;29;20032;-77
2022/06/03 08:35:42;;;;;;;7.10;3.67;;;29.80;51.60;;;;;;4935883;29;20040;-75
2022/06/03 08:38:19;;;;;;;7.03;3.80;;;29.70;51.00;;;;;;4935804;29;20035;-76
2022/06/03 08:40:57;;;;;;;4.20;3.60;;;29.90;50.60;;;;;;4935621;29;20032;-76
2022/06/03 08:43:55;;;;;;;4.53;3.60;;;30.30;50.70;;;;;;4935575;29;20058;-75
2022/06/03 08:46:27;;;;;;;4.85;3.78;;;30.90;51.20;;;;;;4934427;29;20016;-82
2022/06/03 08:49:03;;;;;;;5.60;3.25;;;30.70;50.60;;;;;;4934662;29;20526;-80
2022/06/03 08:51:47;;;;;;;8.15;3.53;;;29.90;51.00;;;;;;4936318;29;20090;-78
2022/06/03 08:54:35;;;;;;;6.20;4.00;;;29.30;50.80;;;;;;4935928;29;20181;-79
2022/06/03 08:57:18;;;;;;;8.70;3.80;;;29.20;52.30;;;;;;4918968;29;20030;-87
2022/06/03 09:00:12;;;;;;;5.57;3.40;;;29.50;50.80;;;;;;4935532;29;20023;-78
2022/06/03 09:02:50;;;;;;;6.20;3.72;;;30.30;50.30;;;;;;4918438;29;20038;-80
2022/06/03 09:05:29;;;;;;;6.63;3.40;;;30.30;49.30;;;;;;4935374;29;20362;-81
2022/06/03 09:08:02;;;;;;;6.43;3.90;;;30.40;50.20;;;;;;4935572;29;20055;-79
2022/06/03 09:10:34;;;;;;;4.45;3.25;;;30.30;49.50;;;;;;4918559;29;20030;-78
2022/06/03 09:13:11;;;;;;;6.47;3.35;;;30.60;49.70;;;;;;4918642;29;20024;-80
2022/06/03 09:15:41;;;;;;;6.82;3.13;;;30.90;49.90;;;;;;4935509;29;20028;-79
2022/06/03 09:18:11;;;;;;;6.57;3.70;;;31.10;48.20;;;;;;4918500;29;20063;-86
2022/06/03 09:20:39;;;;;;;;;;;30.90;48.50;;;;;;4918860;29;20019;-77
2022/06/03 09:23:11;;;;;;;5.28;3.63;;;31.00;48.40;;;;;;4935053;29;19915;-76
2022/06/03 09:25:43;;;;;;;4.78;3.30;;;31.90;48.50;;;;;;4918276;29;20019;-86
2022/06/03 09:28:14;;;;;;;5.25;3.10;;;32.20;45.90;;;;;;4918611;29;20051;-77
2022/06/03 09:30:41;;;;;;;5.55;3.13;;;31.90;47.80;;;;;;4935931;29;20040;-90
2022/06/03 09:33:11;;;;;;;4.35;3.03;;;32.00;47.10;;;;;;4918543;29;20048;-77
2022/06/03 09:35:42;;;;;;;5.20;3.38;;;31.80;46.80;;;;;;4937230;29;20036;-83
2022/06/03 09:38:10;;;;;;;4.63;3.30;;;32.00;47.80;;;;;;4903262;29;20043;-79
2022/06/03 09:40:41;;;;;;;6.10;3.10;;;32.00;48.70;;;;;;4920102;29;20463;-78
2022/06/03 09:43:28;;;;;;;5.20;3.30;;;31.40;49.30;;;;;;4902976;29;20020;-79
2022/06/03 09:45:56;;;;;;;5.15;3.00;;;32.00;47.20;;;;;;4903002;29;20028;-81
2022/06/03 09:48:27;;;;;;;4.03;3.10;;;32.40;46.40;;;;;;4920261;29;20039;-85
2022/06/03 09:50:56;;;;;;;5.07;3.10;;;32.70;46.70;;;;;;4919603;29;20119;-78
2022/06/03 09:53:26;;;;;;;5.90;3.13;;;33.20;45.40;;;;;;4903368;29;20039;-79
2022/06/03 09:55:57;;;;;;;;;;;32.70;45.40;;;;;;4903593;29;20514;-76
2022/06/03 09:58:24;;;;;;;;;;;32.40;46.90;;;;;;4918991;29;19903;-78
2022/06/03 10:00:54;;;;;;;7.65;2.78;;;31.90;46.00;;;;;;4919193;29;19906;-76
2022/06/03 10:03:21;;;;;;;6.72;2.85;;;31.80;46.60;;;;;;4919752;29;20055;-79
2022/06/03 10:05:50;;;;;;;5.43;2.58;;;31.90;45.40;;;;;;4919338;29;20044;-81
2022/06/03 10:08:20;;;;;;;4.95;2.90;;;32.00;45.90;;;;;;4902790;29;20477;-81
2022/06/03 10:13:33;;;;;;;7.50;3.40;;;31.50;44.40;;;;;;4919501;29;20039;-79
2022/06/03 10:16:00;;;;;;;4.40;2.72;;;31.70;45.90;;;;;;4902461;29;20027;-77
2022/06/03 10:18:35;;;;;;;5.05;2.60;;;32.00;45.00;;;;;;4903008;29;20032;-85
2022/06/03 10:21:07;;;;;;;5.47;2.80;;;32.30;46.40;;;;;;4903070;29;20075;-75
2022/06/03 10:23:47;;;;;;;5.90;3.00;;;32.30;45.50;;;;;;4919684;29;20028;-82
2022/06/03 10:26:24;;;;;;;5.72;3.03;;;32.70;45.00;;;;;;4919318;29;20052;-77
2022/06/03 10:28:53;;;;;;;4.45;2.90;;;33.10;44.50;;;;;;4919368;29;20020;-85
2022/06/03 10:31:26;;;;;;;4.97;2.50;;;33.40;45.10;;;;;;4919223;29;20095;-78
2022/06/03 10:33:53;;;;;;;3.85;2.70;;;33.70;43.90;;;;;;4902271;29;20530;-81
2022/06/03 10:36:24;;;;;;;4.93;2.90;;;33.90;43.90;;;;;;4907649;29;20121;-78
2022/06/03 10:38:51;;;;;;;5.15;2.80;;;33.80;44.20;;;;;;4920894;29;20024;-76
2022/06/03 10:41:17;;;;;;;6.13;3.00;;;33.90;45.00;;;;;;4938381;29;20023;-77
2022/06/03 10:43:43;;;;;;;5.00;2.60;;;34.00;43.90;;;;;;4938106;29;20043;-81
2022/06/03 10:46:15;;;;;;;3.50;2.70;;;33.50;43.90;;;;;;4919854;29;20451;-76
2022/06/03 10:48:41;;;;;;;8.77;2.70;;;33.70;43.80;;;;;;4937881;29;20035;-78
2022/06/03 11:02:38;;;;;;;4.97;2.40;;;33.40;43.90;;;;;;4897861;29;20472;-88
2022/06/03 11:05:31;;;;;;;4.82;2.72;;;33.70;44.10;;;;;;4897828;29;20043;-82
2022/06/03 11:08:14;;;;;;;4.40;2.70;;;33.80;43.50;;;;;;4897941;29;20032;-86
2022/06/03 11:10:50;;;;;;;5.43;2.60;;;34.30;42.90;;;;;;4898186;29;20056;-82
2022/06/03 11:13:44;;;;;;;5.40;2.65;;;34.60;44.50;;;;;;4897549;29;20031;-79
2022/06/03 11:16:19;;;;;;;4.57;2.45;;;34.10;44.90;;;;;;4889930;29;20040;-81
2022/06/03 11:18:48;;;;;;;4.38;2.55;;;33.40;43.60;;;;;;4881898;29;20040;-90
2022/06/03 11:21:27;;;;;;;5.28;2.60;;;32.50;44.20;;;;;;4897518;29;20028;-80
2022/06/03 11:23:57;;;;;;;3.60;2.40;;;32.50;44.40;;;;;;4898039;29;20036;-83
2022/06/03 11:26:33;;;;;;;5.45;2.50;;;32.30;45.20;;;;;;4897134;29;20020;-78
2022/06/03 11:29:08;;;;;;;4.28;2.50;;;32.40;46.30;;;;;;4897894;29;20020;-89
2022/06/03 11:31:39;;;;;;;4.70;2.45;;;32.80;44.20;;;;;;4912544;29;20035;-80
2022/06/03 11:34:42;;;;;;;5.93;2.40;;;32.70;44.60;;;;;;4920488;29;20024;-78
2022/06/03 11:37:28;;;;;;;4.88;2.40;;;32.80;44.20;;;;;;4920939;29;20130;-78
2022/06/03 11:40:32;;;;;;;4.65;2.85;;;33.60;43.90;;;;;;4936713;29;20027;-81
2022/06/03 11:43:18;;;;;;;4.68;2.40;;;33.60;44.10;;;;;;4896575;29;20040;-91
2022/06/03 11:45:52;;;;;;;4.30;2.53;;;34.10;43.80;;;;;;4897319;29;20064;-79
2022/06/03 11:48:30;;;;;;;6.30;2.40;;;34.70;43.40;;;;;;4881108;29;20028;-88
2022/06/03 11:50:58;;;;;;;3.97;2.45;;;34.50;42.70;;;;;;4897038;29;20028;-83
2022/06/03 11:53:27;;;;;;;3.40;2.45;;;32.40;43.40;;;;;;4881886;29;20036;-87
2022/06/03 11:55:56;;;;;;;4.60;2.63;;;32.10;45.00;;;;;;4881466;29;20040;-81
2022/06/03 11:58:43;;;;;;;4.63;2.42;;;31.60;44.00;;;;;;4881019;29;20036;-83
2022/06/03 12:01:17;;;;;;;5.82;2.13;;;31.30;45.00;;;;;;4880992;29;20523;-88
2022/06/03 12:04:06;;;;;;;4.40;2.30;;;32.10;45.20;;;;;;4881489;29;20029;-80
2022/06/03 12:06:40;;;;;;;3.25;2.17;;;32.40;44.20;;;;;;4896897;29;20444;-82
2022/06/03 12:09:23;;;;;;;4.05;2.70;;;33.00;43.90;;;;;;4881315;29;20028;-90
2022/06/03 12:14:57;;;;;;;3.88;2.28;;;34.40;42.40;;;;;;4896821;29;20184;-80
2022/06/03 12:17:32;;;;;;;4.43;2.28;;;34.20;43.00;;;;;;4883334;29;20036;-83
2022/06/03 12:19:58;;;;;;;5.95;2.38;;;33.60;43.60;;;;;;4918886;29;20479;-81
2022/06/03 12:22:30;;;;;;;3.33;2.28;;;34.10;43.30;;;;;;4928350;29;20039;-81
2022/06/03 12:25:01;;;;;;;3.42;2.20;;;34.00;42.30;;;;;;4919151;29;20415;-78
2022/06/03 12:27:32;;;;;;;5.53;2.30;;;33.40;44.90;;;;;;4936052;29;20605;-81
2022/06/03 12:30:41;;;;;;;3.47;2.20;;;33.30;44.70;;;;;;4920145;29;20028;-78
2022/06/03 12:33:21;;;;;;;3.88;2.20;;;33.90;43.00;;;;;;4936310;29;20090;-79
2022/06/03 12:35:57;;;;;;;3.25;2.15;;;34.00;42.70;;;;;;4935751;29;20016;-79
2022/06/03 12:38:28;;;;;;;3.80;2.20;;;33.60;43.40;;;;;;4918806;29;20043;-83
2022/06/03 12:40:56;;;;;;;3.92;2.40;;;33.70;43.10;;;;;;4935680;29;20114;-77
2022/06/03 12:43:46;;;;;;;5.25;2.50;;;34.00;44.00;;;;;;4935857;29;20027;-83
2022/06/03 12:46:38;;;;;;;;;;;34.10;43.80;;;;;;4936277;29;20087;-82
2022/06/03 12:49:15;;;;;;;4.45;2.33;;;33.30;43.80;;;;;;4933226;29;19910;-79
2022/06/03 12:52:01;;;;;;;4.05;2.40;;;33.40;43.80;;;;;;4935763;29;20024;-78
2022/06/03 12:54:27;;;;;;;3.80;2.00;;;33.90;43.90;;;;;;4935979;29;20019;-79
2022/06/03 12:57:15;;;;;;;3.63;2.28;;;33.40;44.70;;;;;;4918888;29;20114;-82
2022/06/03 12:59:48;;;;;;;3.85;2.30;;;33.10;43.30;;;;;;4918897;29;20058;-85
2022/06/03 13:02:19;;;;;;;7.45;2.42;;;33.30;44.40;;;;;;4918804;29;20491;-84
2022/06/03 13:04:47;;;;;;;5.15;2.40;;;33.60;43.70;;;;;;4935878;29;20024;-88
2022/06/03 13:07:27;;;;;;;4.43;2.30;;;33.80;44.00;;;;;;4935553;29;20024;-80
2022/06/03 13:10:02;;;;;;;3.20;2.20;;;34.20;43.30;;;;;;4939020;29;20036;-79
2022/06/03 13:12:34;;;;;;;5.05;2.30;;;33.30;43.40;;;;;;4939453;29;20023;-80
2022/06/03 13:15:22;;;;;;;4.60;2.50;;;33.60;43.50;;;;;;4922554;29;20024;-83
2022/06/03 13:21:00;;;;;;;4.00;2.10;;;33.90;43.60;;;;;;4939461;29;20402;-80
2022/06/03 13:23:53;;;;;;;5.72;2.60;;;34.60;44.60;;;;;;4939902;29;20147;-85
2022/06/03 13:26:22;;;;;;;4.25;2.40;;;34.20;43.20;;;;;;4922287;29;20074;-80
2022/06/03 13:28:52;;;;;;;7.72;2.90;;;34.00;45.50;;;;;;4932101;29;20031;-91
2022/06/03 13:31:23;;;;;;;7.85;2.50;;;34.10;43.70;;;;;;4922294;29;20586;-79
2022/06/03 13:36:35;;;;;;;4.07;2.30;;;34.40;43.50;;;;;;4939282;29;20415;-85
2022/06/03 13:39:04;;;;;;;4.70;2.60;;;33.70;43.60;;;;;;4921932;29;20534;-79
2022/06/03 13:44:36;;;;;;;;;;;33.90;44.00;;;;;;4939389;29;20454;-81
2022/06/03 13:47:13;;;;;;;6.53;2.90;;;34.50;44.60;;;;;;4938787;29;19930;-79
2022/06/03 13:49:57;;;;;;;7.05;2.70;;;34.90;44.40;;;;;;4939390;29;20024;-82
2022/06/03 13:52:29;;;;;;;3.55;2.38;;;34.50;43.80;;;;;;4939346;29;20106;-89
2022/06/03 13:55:15;;;;;;;4.78;2.25;;;34.30;43.80;;;;;;4922040;29;20135;-84
2022/06/03 13:57:48;;;;;;;4.25;2.50;;;33.60;43.90;;;;;;4938411;29;20050;-88
2022/06/03 14:00:31;;;;;;;7.72;2.70;;;33.80;43.50;;;;;;4939056;29;20028;-83
2022/06/03 14:03:02;;;;;;;4.53;2.50;;;33.50;44.20;;;;;;4922019;29;20043;-79
2022/06/03 14:05:33;;;;;;;4.43;2.20;;;33.70;44.20;;;;;;4921345;29;20426;-76
2022/06/03 14:08:11;;;;;;;4.30;2.47;;;34.20;43.90;;;;;;4939275;29;20095;-80
2022/06/03 14:10:46;;;;;;;4.10;2.50;;;34.30;43.30;;;;;;4938886;29;20099;-82
2022/06/03 14:13:38;;;;;;;3.30;2.20;;;33.70;43.60;;;;;;4921242;29;20039;-81
2022/06/03 14:16:10;;;;;;;5.30;2.55;;;33.90;44.60;;;;;;4864639;29;20520;-80
2022/06/03 14:19:05;;;;;;;5.70;2.50;;;33.70;44.40;;;;;;4864026;29;20076;-84
2022/06/03 14:21:37;;;;;;;4.55;2.50;;;33.60;44.20;;;;;;4878678;29;20045;-81
2022/06/03 14:24:35;;;;;;;4.45;2.65;;;33.40;44.20;;;;;;4878136;29;20017;-84
2022/06/03 14:27:06;;;;;;;3.60;2.35;;;33.20;43.70;;;;;;4866643;29;20139;-80
2022/06/03 14:29:48;;;;;;;3.63;2.33;;;33.20;44.50;;;;;;4878494;29;20084;-78
2022/06/03 14:32:19;;;;;;;4.32;2.40;;;33.40;44.00;;;;;;4860208;29;20024;-78
2022/06/03 14:34:50;;;;;;;4.57;2.63;;;33.90;44.20;;;;;;4843771;29;20029;-77
2022/06/03 14:37:42;;;;;;;7.38;2.40;;;33.50;44.00;;;;;;4839965;29;20057;-84
2022/06/03 14:40:22;;;;;;;5.25;2.50;;;33.30;43.80;;;;;;4871640;29;20037;-81
2022/06/03 14:42:51;;;;;;;4.75;2.47;;;33.70;44.10;;;;;;4864235;29;20048;-80